Maunaloa, Hawaii
Current Conditions -  °F | °C
As of 11:54 AM on Monday 26 Jan 2015 (Local Time) from PHMK Reporting Station
Few Clouds Few Clouds  
Wind Chill: 75°   Ceiling: Unl
Heat Index: 75°   Visibility: 10mi
Dew Point: 60°   Wind: 18mph
Humidity: 60%   Direction: 50°NE
Pressure: 29.97"   Gusts: 32mph
Location:  21.13°N, 157.21°W
Report Text: PHMK 262154Z 05016G28KT 10SM FEW025 24/16 A2997 RMK AO2 PK WND 05029/2113 SLP152 T02390156
Loading
Personal Weather Stations






























Interactive Weather Map New forecast layout! Learn more

10-Day Weather Forecast

Advertisements
Track Severe Weather on mobile